createdAt,value
2023-01-08T00:02:26.998Z,20.80
2023-01-08T00:05:00.107Z,20.79
2023-01-08T00:07:33.142Z,20.79
2023-01-08T00:10:06.072Z,20.78
2023-01-08T00:12:39.261Z,20.77
2023-01-08T00:15:12.169Z,20.76
2023-01-08T00:17:45.170Z,20.75
2023-01-08T00:20:18.095Z,20.74
2023-01-08T00:22:51.177Z,20.73
2023-01-08T00:25:24.182Z,20.73
2023-01-08T00:27:57.270Z,20.73
2023-01-08T00:30:30.290Z,20.72
2023-01-08T00:33:03.155Z,20.71
2023-01-08T00:35:36.191Z,20.71
2023-01-08T00:38:09.101Z,20.71
2023-01-08T00:40:42.104Z,20.70
2023-01-08T00:43:15.055Z,20.70
2023-01-08T00:45:48.200Z,20.69
2023-01-08T00:48:21.173Z,20.69
2023-01-08T00:50:54.175Z,20.68
2023-01-08T00:53:27.212Z,20.68
2023-01-08T00:56:00.122Z,20.68
2023-01-08T00:58:33.340Z,20.67
2023-01-08T01:01:06.021Z,20.67
2023-01-08T01:03:39.138Z,20.66
2023-01-08T01:06:12.139Z,20.66
2023-01-08T01:08:45.113Z,20.65
2023-01-08T01:11:18.157Z,20.65
2023-01-08T01:13:51.373Z,20.65
2023-01-08T01:16:24.255Z,20.64
2023-01-08T01:18:57.239Z,20.63
2023-01-08T01:21:30.252Z,20.63
2023-01-08T01:24:03.162Z,20.63
2023-01-08T01:26:36.315Z,20.62
2023-01-08T01:29:09.274Z,20.62
2023-01-08T01:31:42.268Z,20.62
2023-01-08T01:34:15.172Z,20.62
2023-01-08T01:36:48.190Z,20.61
2023-01-08T01:39:21.225Z,20.61
2023-01-08T01:41:54.257Z,20.61
2023-01-08T01:44:27.392Z,20.60
2023-01-08T01:47:00.225Z,20.60
2023-01-08T01:49:33.235Z,20.60
2023-01-08T01:52:06.178Z,20.59
2023-01-08T01:54:39.263Z,20.59
2023-01-08T01:57:12.302Z,20.59
2023-01-08T01:59:51.276Z,20.58
2023-01-08T02:02:24.473Z,20.58
2023-01-08T02:05:11.182Z,20.58
2023-01-08T02:07:44.223Z,20.57
2023-01-08T02:10:17.290Z,20.57
2023-01-08T02:12:50.329Z,20.57
2023-01-08T02:15:23.464Z,20.56
2023-01-08T02:17:56.239Z,20.56
2023-01-08T02:20:29.285Z,20.56
2023-01-08T02:23:02.332Z,20.55
2023-01-08T02:25:35.304Z,20.55
2023-01-08T02:28:08.342Z,20.55
2023-01-08T02:30:41.483Z,20.55
2023-01-08T02:33:14.290Z,20.54
2023-01-08T02:35:47.236Z,20.54
2023-01-08T02:38:20.271Z,20.54
2023-01-08T02:40:53.375Z,20.53
2023-01-08T02:43:26.284Z,20.53
2023-01-08T02:45:59.409Z,20.53
2023-01-08T02:48:32.283Z,20.52
2023-01-08T02:51:05.262Z,20.52
2023-01-08T02:53:38.338Z,20.52
2023-01-08T02:56:11.405Z,20.51
2023-01-08T02:58:58.240Z,20.51
2023-01-08T03:01:31.361Z,20.51
2023-01-08T03:04:04.440Z,20.50
2023-01-08T03:06:37.286Z,20.50
2023-01-08T03:09:10.281Z,20.50
2023-01-08T03:11:43.345Z,20.50
2023-01-08T03:14:16.432Z,20.49
2023-01-08T03:16:50.113Z,20.49
2023-01-08T03:19:22.423Z,20.49
2023-01-08T03:21:55.358Z,20.48
2023-01-08T03:24:28.339Z,20.48
2023-01-08T03:27:01.351Z,20.48
2023-01-08T03:29:34.431Z,20.47
2023-01-08T03:32:07.462Z,20.47
2023-01-08T03:34:40.455Z,20.47
2023-01-08T03:37:13.391Z,20.46
2023-01-08T03:39:46.433Z,20.46
2023-01-08T03:42:19.351Z,20.46
2023-01-08T03:45:06.411Z,20.46
2023-01-08T03:47:39.523Z,20.45
2023-01-08T03:50:12.392Z,20.45
2023-01-08T03:52:45.367Z,20.45
2023-01-08T03:55:18.461Z,20.44
2023-01-08T03:57:51.382Z,20.44
2023-01-08T04:00:24.486Z,20.44
2023-01-08T04:02:57.616Z,20.44
2023-01-08T04:05:30.485Z,20.44
2023-01-08T04:08:03.583Z,20.43
2023-01-08T04:10:37.252Z,20.43
2023-01-08T04:13:10.423Z,20.43
2023-01-08T04:15:57.463Z,20.42
2023-01-08T04:18:30.621Z,20.42
2023-01-08T04:21:03.391Z,20.42
2023-01-08T04:23:36.500Z,20.42
2023-01-08T04:26:09.322Z,20.41
2023-01-08T04:28:42.513Z,20.41
2023-01-08T04:31:15.497Z,20.41
2023-01-08T04:33:48.745Z,20.41
2023-01-08T04:36:21.503Z,20.41
2023-01-08T04:38:54.561Z,20.40
2023-01-08T04:41:27.457Z,20.40
2023-01-08T04:44:00.592Z,20.40
2023-01-08T04:46:33.573Z,20.40
2023-01-08T04:49:06.574Z,20.40
2023-01-08T04:51:39.465Z,20.39
2023-01-08T04:54:12.582Z,20.39
2023-01-08T04:56:45.511Z,20.39
2023-01-08T04:59:18.573Z,20.39
2023-01-08T05:01:51.628Z,20.38
2023-01-08T05:04:24.706Z,20.38
2023-01-08T05:06:57.485Z,20.38
2023-01-08T05:09:30.389Z,20.38
2023-01-08T05:12:03.613Z,20.38
2023-01-08T05:14:36.474Z,20.38
2023-01-08T05:17:09.564Z,20.38
2023-01-08T05:19:42.697Z,20.37
2023-01-08T05:22:15.507Z,20.37
2023-01-08T05:24:48.596Z,20.37
2023-01-08T05:27:21.621Z,20.37
2023-01-08T05:29:54.597Z,20.37
2023-01-08T05:32:27.598Z,20.36
2023-01-08T05:35:00.724Z,20.36
2023-01-08T05:37:33.643Z,20.36
2023-01-08T05:40:06.346Z,20.36
2023-01-08T05:42:39.550Z,20.36
2023-01-08T05:45:12.824Z,20.35
2023-01-08T05:47:46.655Z,20.35
2023-01-08T05:50:19.667Z,20.35
2023-01-08T05:52:52.610Z,20.35
2023-01-08T05:55:25.652Z,20.34
2023-01-08T05:57:58.522Z,20.34
2023-01-08T06:00:31.643Z,20.34
2023-01-08T06:03:04.731Z,20.34
2023-01-08T06:05:37.795Z,20.33
2023-01-08T06:08:10.598Z,20.33
2023-01-08T06:10:43.515Z,20.33
2023-01-08T06:13:16.647Z,20.33
2023-01-08T06:15:49.771Z,20.32
2023-01-08T06:18:22.593Z,20.32
2023-01-08T06:20:55.847Z,20.32
2023-01-08T06:23:28.625Z,20.32
2023-01-08T06:26:01.725Z,20.32
2023-01-08T06:28:34.623Z,20.31
2023-01-08T06:31:07.790Z,20.31
2023-01-08T06:33:43.666Z,20.31
2023-01-08T06:36:16.614Z,20.30
2023-01-08T06:38:49.710Z,20.30
2023-01-08T06:41:22.661Z,20.30
2023-01-08T06:43:55.730Z,20.30
2023-01-08T06:46:28.731Z,20.30
2023-01-08T06:49:01.637Z,20.29
2023-01-08T06:51:34.840Z,20.29
2023-01-08T06:54:07.724Z,20.29
2023-01-08T06:56:53.067Z,20.29
2023-01-08T06:59:13.649Z,20.29
2023-01-08T07:01:46.918Z,20.29
2023-01-08T07:04:19.743Z,20.29
2023-01-08T07:06:53.071Z,20.29
2023-01-08T07:09:26.634Z,20.28
2023-01-08T07:11:59.720Z,20.28
2023-01-08T07:14:32.659Z,20.28
2023-01-08T07:17:05.392Z,20.28
2023-01-08T07:19:38.660Z,20.28
2023-01-08T07:22:11.848Z,20.28
2023-01-08T07:24:44.823Z,20.28
2023-01-08T07:27:18.714Z,20.27
2023-01-08T07:29:51.814Z,20.27
2023-01-08T07:32:24.677Z,20.27
2023-01-08T07:34:57.624Z,20.27
2023-01-08T07:37:30.837Z,20.27
2023-01-08T07:40:03.718Z,20.27
2023-01-08T07:42:36.675Z,20.27
2023-01-08T07:45:09.623Z,20.27
2023-01-08T07:47:42.779Z,20.26
2023-01-08T07:50:15.752Z,20.26
2023-01-08T07:52:48.784Z,20.26
2023-01-08T07:55:21.792Z,20.26
2023-01-08T07:57:54.960Z,20.26
2023-01-08T08:00:28.877Z,20.26
2023-01-08T08:03:01.985Z,20.25
2023-01-08T08:05:34.862Z,20.25
2023-01-08T08:08:07.947Z,20.25
2023-01-08T08:10:40.605Z,20.25
2023-01-08T08:13:13.855Z,20.25
2023-01-08T08:15:46.916Z,20.25
2023-01-08T08:18:19.811Z,20.25
2023-01-08T08:20:52.882Z,20.25
2023-01-08T08:23:25.855Z,20.25
2023-01-08T08:25:58.756Z,20.25
2023-01-08T08:28:31.858Z,20.25
2023-01-08T08:31:04.826Z,20.25
2023-01-08T08:33:37.797Z,20.25
2023-01-08T08:36:10.777Z,20.25
2023-01-08T08:38:43.901Z,20.25
2023-01-08T08:41:16.906Z,20.26
2023-01-08T08:43:50.005Z,20.26
2023-01-08T08:46:23.943Z,20.26
2023-01-08T08:48:56.540Z,20.26
2023-01-08T08:51:29.546Z,20.26
2023-01-08T08:54:03.055Z,20.25
2023-01-08T08:56:35.880Z,20.19
2023-01-08T08:59:08.645Z,20.14
2023-01-08T09:01:42.090Z,20.10
2023-01-08T09:04:14.577Z,20.07
2023-01-08T09:06:48.145Z,20.05
2023-01-08T09:09:21.847Z,20.04
2023-01-08T09:11:54.722Z,20.04
2023-01-08T09:14:27.609Z,20.04
2023-01-08T09:17:00.578Z,20.05
2023-01-08T09:19:33.945Z,20.05
2023-01-08T09:22:06.742Z,20.07
2023-01-08T09:24:39.806Z,20.08
2023-01-08T09:27:12.596Z,20.09
2023-01-08T09:29:45.731Z,20.10
2023-01-08T09:32:19.856Z,20.11
2023-01-08T09:34:52.995Z,20.12
2023-01-08T09:37:25.787Z,20.13
2023-01-08T09:40:02.400Z,20.15
2023-01-08T09:42:31.940Z,20.16
2023-01-08T09:45:04.958Z,20.17
2023-01-08T09:47:37.913Z,20.18
2023-01-08T09:50:10.623Z,20.19
2023-01-08T09:52:43.952Z,20.20
2023-01-08T09:55:16.668Z,20.21
2023-01-08T10:00:23.918Z,20.23
2023-01-08T10:02:57.115Z,20.24
2023-01-08T10:05:29.814Z,20.25
2023-01-08T10:08:02.954Z,20.25
2023-01-08T10:10:35.876Z,20.26
2023-01-08T10:13:08.698Z,20.27
2023-01-08T10:15:42.061Z,20.28
2023-01-08T10:18:14.978Z,20.29
2023-01-08T10:20:47.667Z,20.30
2023-01-08T10:23:20.942Z,20.31
2023-01-08T10:25:54.150Z,20.32
2023-01-08T10:28:26.967Z,20.33
2023-01-08T10:31:00.089Z,20.34
2023-01-08T10:33:32.727Z,20.35
2023-01-08T10:36:05.879Z,20.35
2023-01-08T10:38:39.010Z,20.36
2023-01-08T10:41:12.075Z,20.37
2023-01-08T10:43:44.862Z,20.37
2023-01-08T10:46:17.785Z,20.38
2023-01-08T10:48:50.990Z,20.39
2023-01-08T10:51:24.071Z,20.40
2023-01-08T10:53:57.102Z,20.40
2023-01-08T10:56:30.061Z,20.41
2023-01-08T10:59:03.037Z,20.42
2023-01-08T11:01:36.246Z,20.43
2023-01-08T11:04:09.205Z,20.43
2023-01-08T11:06:43.011Z,20.44
2023-01-08T11:09:16.014Z,20.45
2023-01-08T11:11:49.066Z,20.45
2023-01-08T11:14:22.123Z,20.46
2023-01-08T11:16:55.048Z,20.47
2023-01-08T11:19:28.120Z,20.48
2023-01-08T11:22:00.984Z,20.48
2023-01-08T11:24:33.829Z,20.49
2023-01-08T11:27:07.065Z,20.50
2023-01-08T11:29:39.940Z,20.50
2023-01-08T11:32:13.091Z,20.51
2023-01-08T11:34:45.958Z,20.52
2023-01-08T11:37:19.120Z,20.52
2023-01-08T11:39:52.025Z,20.53
2023-01-08T11:42:25.209Z,20.53
2023-01-08T11:44:58.054Z,20.53
2023-01-08T11:47:31.178Z,20.53
2023-01-08T11:50:04.095Z,20.53
2023-01-08T11:52:37.250Z,20.53
2023-01-08T11:55:10.964Z,20.53
2023-01-08T11:57:44.112Z,20.53
2023-01-08T12:00:16.818Z,20.52
2023-01-08T12:02:50.242Z,20.52
2023-01-08T12:05:22.931Z,20.53
2023-01-08T12:07:56.020Z,20.53
2023-01-08T12:10:42.839Z,20.53
2023-01-08T12:13:15.882Z,20.54
2023-01-08T12:15:48.824Z,20.54
2023-01-08T12:18:22.163Z,20.55
2023-01-08T12:20:54.848Z,20.55
2023-01-08T12:23:27.883Z,20.55
2023-01-08T12:26:01.029Z,20.56
2023-01-08T12:28:34.012Z,20.57
2023-01-08T12:31:06.856Z,20.57
2023-01-08T12:33:40.040Z,20.58
2023-01-08T12:36:13.187Z,20.58
2023-01-08T12:38:46.179Z,20.59
2023-01-08T12:41:19.020Z,20.59
2023-01-08T12:43:52.292Z,20.60
2023-01-08T12:46:25.010Z,20.60
2023-01-08T12:48:57.949Z,20.60
2023-01-08T12:51:31.293Z,20.61
2023-01-08T12:54:04.343Z,20.61
2023-01-08T12:56:38.232Z,20.62
2023-01-08T12:59:11.253Z,20.62
2023-01-08T13:01:44.287Z,20.63
2023-01-08T13:04:16.934Z,20.63
2023-01-08T13:06:50.164Z,20.63
2023-01-08T13:09:23.096Z,20.64
2023-01-08T13:11:56.117Z,20.64
2023-01-08T13:14:28.947Z,20.64
2023-01-08T13:17:01.932Z,20.65
2023-01-08T13:19:35.114Z,20.65
2023-01-08T13:22:08.103Z,20.65
2023-01-08T13:24:41.314Z,20.65
2023-01-08T13:27:14.243Z,20.66
2023-01-08T13:29:50.241Z,20.66
2023-01-08T13:32:23.238Z,20.66
2023-01-08T13:34:56.321Z,20.67
2023-01-08T13:37:29.305Z,20.67
2023-01-08T13:40:16.232Z,20.67
2023-01-08T13:42:52.282Z,20.67
2023-01-08T13:45:25.324Z,20.67
2023-01-08T13:47:58.244Z,20.68
2023-01-08T13:50:31.324Z,20.68
2023-01-08T13:53:04.357Z,20.68
2023-01-08T13:55:37.331Z,20.68
2023-01-08T13:58:10.288Z,20.69
2023-01-08T14:00:43.027Z,20.69
2023-01-08T14:03:17.267Z,20.70
2023-01-08T14:05:50.392Z,20.69
2023-01-08T14:08:23.274Z,20.69
2023-01-08T14:10:56.170Z,20.68
2023-01-08T14:13:29.301Z,20.68
2023-01-08T14:16:02.404Z,20.67
2023-01-08T14:18:35.329Z,20.66
2023-01-08T14:21:08.410Z,20.66
2023-01-08T14:23:41.239Z,20.65
2023-01-08T14:26:14.293Z,20.64
2023-01-08T14:28:47.463Z,20.63
2023-01-08T14:31:21.368Z,20.62
2023-01-08T14:33:54.185Z,20.62
2023-01-08T14:36:27.424Z,20.61
2023-01-08T14:39:00.341Z,20.60
2023-01-08T14:41:33.184Z,20.60
2023-01-08T14:44:06.496Z,20.59
2023-01-08T14:46:40.480Z,20.58
2023-01-08T14:49:13.329Z,20.58
2023-01-08T14:51:46.464Z,20.57
2023-01-08T14:54:19.391Z,20.57
2023-01-08T14:56:52.335Z,20.56
2023-01-08T14:59:25.425Z,20.55
2023-01-08T15:01:58.388Z,20.54
2023-01-08T15:04:31.208Z,20.54
2023-01-08T15:07:04.350Z,20.54
2023-01-08T15:09:37.264Z,20.53
2023-01-08T15:12:10.247Z,20.53
2023-01-08T15:14:43.477Z,20.52
2023-01-08T15:17:16.454Z,20.52
2023-01-08T15:19:49.513Z,20.52
2023-01-08T15:22:22.401Z,20.52
2023-01-08T15:24:55.411Z,20.51
2023-01-08T15:27:28.622Z,20.51
2023-01-08T15:30:02.377Z,20.51
2023-01-08T15:32:35.555Z,20.50
2023-01-08T15:35:08.259Z,20.50
2023-01-08T15:37:41.473Z,20.49
2023-01-08T15:40:14.581Z,20.49
2023-01-08T15:42:47.552Z,20.48
2023-01-08T15:45:34.498Z,20.48
2023-01-08T15:48:07.481Z,20.47
2023-01-08T15:50:40.197Z,20.46
2023-01-08T15:53:13.475Z,20.46
2023-01-08T15:55:46.480Z,20.46
2023-01-08T15:58:19.547Z,20.45
2023-01-08T16:00:52.229Z,20.45
2023-01-08T16:03:25.503Z,20.44
2023-01-08T16:05:58.430Z,20.43
2023-01-08T16:08:31.593Z,20.43
2023-01-08T16:11:04.390Z,20.42
2023-01-08T16:13:37.316Z,20.41
2023-01-08T16:16:10.493Z,20.40
2023-01-08T16:18:43.242Z,20.39
2023-01-08T16:21:16.244Z,20.38
2023-01-08T16:23:49.481Z,20.37
2023-01-08T16:26:22.229Z,20.36
2023-01-08T16:28:55.592Z,20.36
2023-01-08T16:31:28.588Z,20.36
2023-01-08T16:34:01.642Z,20.36
2023-01-08T16:36:34.505Z,20.36
2023-01-08T16:39:07.582Z,20.36
2023-01-08T16:41:40.552Z,20.36
2023-01-08T16:44:13.252Z,20.36
2023-01-08T16:46:46.438Z,20.37
2023-01-08T16:49:25.415Z,20.37
2023-01-08T16:51:58.418Z,20.37
2023-01-08T16:54:31.447Z,20.38
2023-01-08T16:57:04.500Z,20.38
2023-01-08T16:59:37.614Z,20.38
2023-01-08T17:02:10.361Z,20.39
2023-01-08T17:04:43.573Z,20.39
2023-01-08T17:07:16.454Z,20.40
2023-01-08T17:09:49.418Z,20.40
2023-01-08T17:12:22.695Z,20.40
2023-01-08T17:14:55.390Z,20.41
2023-01-08T17:17:28.475Z,20.41
2023-01-08T17:20:01.755Z,20.42
2023-01-08T17:22:48.566Z,20.42
2023-01-08T17:25:21.673Z,20.43
2023-01-08T17:27:54.697Z,20.43
2023-01-08T17:30:27.618Z,20.44
2023-01-08T17:33:00.472Z,20.45
2023-01-08T17:35:33.713Z,20.45
2023-01-08T17:38:06.723Z,20.46
2023-01-08T17:40:39.349Z,20.47
2023-01-08T17:43:12.322Z,20.48
2023-01-08T17:45:45.603Z,20.48
2023-01-08T17:48:18.480Z,20.49
2023-01-08T17:50:51.572Z,20.50
2023-01-08T17:53:24.590Z,20.50
2023-01-08T17:55:57.675Z,20.51
2023-01-08T17:58:30.496Z,20.52
2023-01-08T18:01:03.746Z,20.52
2023-01-08T18:03:36.348Z,20.53
2023-01-08T18:06:09.376Z,20.53
2023-01-08T18:08:42.479Z,20.54
2023-01-08T18:11:15.408Z,20.55
2023-01-08T18:13:48.759Z,20.55
2023-01-08T18:16:21.494Z,20.56
2023-01-08T18:18:54.514Z,20.57
2023-01-08T18:21:27.669Z,20.57
2023-01-08T18:24:00.462Z,20.58
2023-01-08T18:26:33.429Z,20.59
2023-01-08T18:29:06.418Z,20.59
2023-01-08T18:31:39.614Z,20.60
2023-01-08T18:34:12.407Z,20.60
2023-01-08T18:36:45.517Z,20.60
2023-01-08T18:39:18.692Z,20.61
2023-01-08T18:41:51.818Z,20.61
2023-01-08T18:44:24.511Z,20.62
2023-01-08T18:46:57.642Z,20.62
2023-01-08T18:49:30.570Z,20.62
2023-01-08T18:52:03.614Z,20.62
2023-01-08T18:54:36.560Z,20.63
2023-01-08T18:57:09.472Z,20.63
2023-01-08T18:59:42.544Z,20.63
2023-01-08T19:02:15.725Z,20.64
2023-01-08T19:04:48.843Z,20.64
2023-01-08T19:07:21.545Z,20.65
2023-01-08T19:09:54.564Z,20.65
2023-01-08T19:12:27.741Z,20.65
2023-01-08T19:15:00.828Z,20.66
2023-01-08T19:17:33.562Z,20.66
2023-01-08T19:20:06.696Z,20.67
2023-01-08T19:22:39.542Z,20.67
2023-01-08T19:25:26.503Z,20.67
2023-01-08T19:27:59.864Z,20.68
2023-01-08T19:30:32.864Z,20.68
2023-01-08T19:33:05.638Z,20.68
2023-01-08T19:35:38.774Z,20.68
2023-01-08T19:38:25.867Z,20.69
2023-01-08T19:40:58.818Z,20.69
2023-01-08T19:43:31.938Z,20.69
2023-01-08T19:46:09.622Z,20.70
2023-01-08T19:48:42.775Z,20.70
2023-01-08T19:51:15.817Z,20.70
2023-01-08T19:53:48.792Z,20.70
2023-01-08T19:56:21.885Z,20.70
2023-01-08T19:58:54.797Z,20.71
2023-01-08T20:01:28.047Z,20.71
2023-01-08T20:04:00.539Z,20.71
2023-01-08T20:06:33.868Z,20.71
2023-01-08T20:09:06.711Z,20.72
2023-01-08T20:11:39.548Z,20.72
2023-01-08T20:14:12.824Z,20.73
2023-01-08T20:16:45.554Z,20.73
2023-01-08T20:19:18.955Z,20.73
2023-01-08T20:21:51.874Z,20.73
2023-01-08T20:24:24.865Z,20.73
2023-01-08T20:26:57.973Z,20.74
2023-01-08T20:29:30.965Z,20.74
2023-01-08T20:32:03.931Z,20.74
2023-01-08T20:34:36.722Z,20.74
2023-01-08T20:37:09.587Z,20.74
2023-01-08T20:39:42.767Z,20.74
2023-01-08T20:42:22.097Z,20.74
2023-01-08T20:44:48.582Z,20.74
2023-01-08T20:47:21.602Z,20.75
2023-01-08T20:50:19.207Z,20.75
2023-01-08T20:52:41.921Z,20.75
2023-01-08T20:55:15.678Z,20.75
2023-01-08T20:57:47.938Z,20.75
2023-01-08T21:00:21.010Z,20.75
2023-01-08T21:02:53.778Z,20.76
2023-01-08T21:05:26.749Z,20.76
2023-01-08T21:07:59.924Z,20.76
2023-01-08T21:10:32.855Z,20.76
2023-01-08T21:13:09.460Z,20.76
2023-01-08T21:15:42.811Z,20.77
2023-01-08T21:18:16.007Z,20.77
2023-01-08T21:20:49.001Z,20.77
2023-01-08T21:23:21.934Z,20.77
2023-01-08T21:25:54.672Z,20.77
2023-01-08T21:28:28.032Z,20.77
2023-01-08T21:31:01.058Z,20.77
2023-01-08T21:33:33.950Z,20.77
2023-01-08T21:36:06.957Z,20.77
2023-01-08T21:38:39.955Z,20.77
2023-01-08T21:41:12.719Z,20.78
2023-01-08T21:43:45.952Z,20.78
2023-01-08T21:46:18.921Z,20.78
2023-01-08T21:48:51.991Z,20.78
2023-01-08T21:51:24.865Z,20.78
2023-01-08T21:53:58.003Z,20.79
2023-01-08T21:56:31.011Z,20.79
2023-01-08T21:59:03.788Z,20.79
2023-01-08T22:01:36.774Z,20.79
2023-01-08T22:04:09.860Z,20.79
2023-01-08T22:06:42.989Z,20.79
2023-01-08T22:09:15.732Z,20.80
2023-01-08T22:11:49.029Z,20.80
2023-01-08T22:14:21.868Z,20.80
2023-01-08T22:16:54.836Z,20.80
2023-01-08T22:19:27.936Z,20.80
2023-01-08T22:22:00.870Z,20.80
2023-01-08T22:24:33.751Z,20.80
2023-01-08T22:27:06.831Z,20.80
2023-01-08T22:29:40.046Z,20.81
2023-01-08T22:32:17.004Z,20.82
2023-01-08T22:34:49.880Z,20.83
2023-01-08T22:37:22.954Z,20.84
2023-01-08T22:39:55.939Z,20.85
2023-01-08T22:42:28.994Z,20.85
2023-01-08T22:45:02.037Z,20.86
2023-01-08T22:47:34.981Z,20.86
2023-01-08T22:50:08.091Z,20.86
2023-01-08T22:52:41.080Z,20.85
2023-01-08T22:55:13.802Z,20.85
2023-01-08T22:57:47.100Z,20.85
2023-01-08T23:00:20.172Z,20.85
2023-01-08T23:02:55.229Z,20.85
2023-01-08T23:05:28.191Z,20.84
2023-01-08T23:08:01.127Z,20.84
2023-01-08T23:10:33.978Z,20.83
2023-01-08T23:13:07.186Z,20.82
2023-01-08T23:15:40.213Z,20.81
2023-01-08T23:18:13.094Z,20.80
2023-01-08T23:20:46.210Z,20.79
2023-01-08T23:23:19.203Z,20.79
2023-01-08T23:25:52.200Z,20.78
2023-01-08T23:28:25.234Z,20.77
2023-01-08T23:30:58.201Z,20.76
2023-01-08T23:33:31.243Z,20.76
2023-01-08T23:36:04.142Z,20.75
2023-01-08T23:38:37.252Z,20.74
2023-01-08T23:41:10.159Z,20.74
2023-01-08T23:43:43.270Z,20.73
2023-01-08T23:46:16.158Z,20.72
2023-01-08T23:48:49.244Z,20.72
2023-01-08T23:51:22.132Z,20.71
2023-01-08T23:53:55.166Z,20.70
2023-01-08T23:56:28.141Z,20.70
2023-01-08T23:59:01.306Z,20.70
